sensor_id;sensor_type;location;lat;lon;timestamp;P1;P2;P0
46681;PMS5003;34101;53.430;-2.224;2022-10-16T00:01:05;1;1;
46681;PMS5003;34101;53.430;-2.224;2022-10-16T00:03:34;2;1;
46681;PMS5003;34101;53.430;-2.224;2022-10-16T00:06:02;3;2;
46681;PMS5003;34101;53.430;-2.224;2022-10-16T00:08:30;0;0;
46681;PMS5003;34101;53.430;-2.224;2022-10-16T00:10:59;3;2;
46681;PMS5003;34101;53.430;-2.224;2022-10-16T00:13:28;1;1;
46681;PMS5003;34101;53.430;-2.224;2022-10-16T00:15:56;4;2;
46681;PMS5003;34101;53.430;-2.224;2022-10-16T00:18:24;2;2;
46681;PMS5003;34101;53.430;-2.224;2022-10-16T00:20:51;2;2;
46681;PMS5003;34101;53.430;-2.224;2022-10-16T00:23:18;4;2;
46681;PMS5003;34101;53.430;-2.224;2022-10-16T00:25:54;4;1;
46681;PMS5003;34101;53.430;-2.224;2022-10-16T00:28:22;2;2;
46681;PMS5003;34101;53.430;-2.224;2022-10-16T00:30:49;3;2;
46681;PMS5003;34101;53.430;-2.224;2022-10-16T00:33:17;10;2;
46681;PMS5003;34101;53.430;-2.224;2022-10-16T00:35:44;4;2;
46681;PMS5003;34101;53.430;-2.224;2022-10-16T00:38:12;1;1;
46681;PMS5003;34101;53.430;-2.224;2022-10-16T00:40:39;1;1;
46681;PMS5003;34101;53.430;-2.224;2022-10-16T00:43:09;3;2;
46681;PMS5003;34101;53.430;-2.224;2022-10-16T00:45:40;3;2;
46681;PMS5003;34101;53.430;-2.224;2022-10-16T00:48:10;2;2;
46681;PMS5003;34101;53.430;-2.224;2022-10-16T00:50:39;2;1;
46681;PMS5003;34101;53.430;-2.224;2022-10-16T00:53:07;1;1;
46681;PMS5003;34101;53.430;-2.224;2022-10-16T00:55:34;5;2;
46681;PMS5003;34101;53.430;-2.224;2022-10-16T00:58:02;2;2;
46681;PMS5003;34101;53.430;-2.224;2022-10-16T01:00:31;3;1;
46681;PMS5003;34101;53.430;-2.224;2022-10-16T01:02:59;1;1;
46681;PMS5003;34101;53.430;-2.224;2022-10-16T01:05:30;4;1;
46681;PMS5003;34101;53.430;-2.224;2022-10-16T01:08:05;4;2;
46681;PMS5003;34101;53.430;-2.224;2022-10-16T01:10:40;1;1;
46681;PMS5003;34101;53.430;-2.224;2022-10-16T01:13:14;3;1;
46681;PMS5003;34101;53.430;-2.224;2022-10-16T01:15:47;5;3;
46681;PMS5003;34101;53.430;-2.224;2022-10-16T01:18:19;5;2;
46681;PMS5003;34101;53.430;-2.224;2022-10-16T01:20:57;5;2;
46681;PMS5003;34101;53.430;-2.224;2022-10-16T01:23:34;1;1;
46681;PMS5003;34101;53.430;-2.224;2022-10-16T01:26:11;2;2;
46681;PMS5003;34101;53.430;-2.224;2022-10-16T01:28:45;3;1;
46681;PMS5003;34101;53.430;-2.224;2022-10-16T01:31:18;4;2;
46681;PMS5003;34101;53.430;-2.224;2022-10-16T01:33:51;2;2;
46681;PMS5003;34101;53.430;-2.224;2022-10-16T01:36:24;5;1;
46681;PMS5003;34101;53.430;-2.224;2022-10-16T01:38:56;3;2;
46681;PMS5003;34101;53.430;-2.224;2022-10-16T01:41:30;2;0;
46681;PMS5003;34101;53.430;-2.224;2022-10-16T01:44:02;1;0;
46681;PMS5003;34101;53.430;-2.224;2022-10-16T01:46:32;3;3;
46681;PMS5003;34101;53.430;-2.224;2022-10-16T01:49:04;3;1;
46681;PMS5003;34101;53.430;-2.224;2022-10-16T01:51:32;1;0;
46681;PMS5003;34101;53.430;-2.224;2022-10-16T01:54:01;1;1;
46681;PMS5003;34101;53.430;-2.224;2022-10-16T01:56:30;2;1;
46681;PMS5003;34101;53.430;-2.224;2022-10-16T01:59:00;6;1;
46681;PMS5003;34101;53.430;-2.224;2022-10-16T02:02:26;0;0;
46681;PMS5003;34101;53.430;-2.224;2022-10-16T02:04:57;1;1;
46681;PMS5003;34101;53.430;-2.224;2022-10-16T02:07:31;3;1;
46681;PMS5003;34101;53.430;-2.224;2022-10-16T02:09:59;3;1;
46681;PMS5003;34101;53.430;-2.224;2022-10-16T02:12:28;2;2;
46681;PMS5003;34101;53.430;-2.224;2022-10-16T02:14:58;2;2;
46681;PMS5003;34101;53.430;-2.224;2022-10-16T02:17:25;3;1;
46681;PMS5003;34101;53.430;-2.224;2022-10-16T02:19:54;1;1;
46681;PMS5003;34101;53.430;-2.224;2022-10-16T02:22:24;1;1;
46681;PMS5003;34101;53.430;-2.224;2022-10-16T02:24:56;2;1;
46681;PMS5003;34101;53.430;-2.224;2022-10-16T02:27:26;1;1;
46681;PMS5003;34101;53.430;-2.224;2022-10-16T02:30:02;0;0;
46681;PMS5003;34101;53.430;-2.224;2022-10-16T02:32:37;2;0;
46681;PMS5003;34101;53.430;-2.224;2022-10-16T02:35:08;0;0;
46681;PMS5003;34101;53.430;-2.224;2022-10-16T02:37:35;4;1;
46681;PMS5003;34101;53.430;-2.224;2022-10-16T02:40:05;1;0;
46681;PMS5003;34101;53.430;-2.224;2022-10-16T02:42:34;1;0;
46681;PMS5003;34101;53.430;-2.224;2022-10-16T02:45:03;1;1;
46681;PMS5003;34101;53.430;-2.224;2022-10-16T02:47:31;0;0;
46681;PMS5003;34101;53.430;-2.224;2022-10-16T02:49:59;3;2;
46681;PMS5003;34101;53.430;-2.224;2022-10-16T02:52:26;2;1;
46681;PMS5003;34101;53.430;-2.224;2022-10-16T02:54:53;4;2;
46681;PMS5003;34101;53.430;-2.224;2022-10-16T02:57:21;1;0;
46681;PMS5003;34101;53.430;-2.224;2022-10-16T02:59:48;1;1;
46681;PMS5003;34101;53.430;-2.224;2022-10-16T03:02:16;3;0;
46681;PMS5003;34101;53.430;-2.224;2022-10-16T03:04:43;1;0;
46681;PMS5003;34101;53.430;-2.224;2022-10-16T03:07:11;1;1;
46681;PMS5003;34101;53.430;-2.224;2022-10-16T03:09:38;1;1;
46681;PMS5003;34101;53.430;-2.224;2022-10-16T03:12:06;1;1;
46681;PMS5003;34101;53.430;-2.224;2022-10-16T03:14:33;2;1;
46681;PMS5003;34101;53.430;-2.224;2022-10-16T03:17:00;3;1;
46681;PMS5003;34101;53.430;-2.224;2022-10-16T03:19:28;1;1;
46681;PMS5003;34101;53.430;-2.224;2022-10-16T03:21:55;2;2;
46681;PMS5003;34101;53.430;-2.224;2022-10-16T03:24:22;1;1;
46681;PMS5003;34101;53.430;-2.224;2022-10-16T03:26:50;2;2;
46681;PMS5003;34101;53.430;-2.224;2022-10-16T03:29:17;3;1;
46681;PMS5003;34101;53.430;-2.224;2022-10-16T03:31:45;1;1;
46681;PMS5003;34101;53.430;-2.224;2022-10-16T03:34:12;4;2;
46681;PMS5003;34101;53.430;-2.224;2022-10-16T03:36:40;3;2;
46681;PMS5003;34101;53.430;-2.224;2022-10-16T03:39:07;2;2;
46681;PMS5003;34101;53.430;-2.224;2022-10-16T03:41:35;2;1;
46681;PMS5003;34101;53.430;-2.224;2022-10-16T03:44:02;1;0;
46681;PMS5003;34101;53.430;-2.224;2022-10-16T03:46:30;1;1;
46681;PMS5003;34101;53.430;-2.224;2022-10-16T03:48:59;1;1;
46681;PMS5003;34101;53.430;-2.224;2022-10-16T03:51:27;1;1;
46681;PMS5003;34101;53.430;-2.224;2022-10-16T03:53:54;2;1;
46681;PMS5003;34101;53.430;-2.224;2022-10-16T03:56:22;1;1;
46681;PMS5003;34101;53.430;-2.224;2022-10-16T03:58:49;3;2;
46681;PMS5003;34101;53.430;-2.224;2022-10-16T04:01:17;0;0;
46681;PMS5003;34101;53.430;-2.224;2022-10-16T04:03:44;1;0;
46681;PMS5003;34101;53.430;-2.224;2022-10-16T04:06:11;2;2;
46681;PMS5003;34101;53.430;-2.224;2022-10-16T04:08:39;2;2;
46681;PMS5003;34101;53.430;-2.224;2022-10-16T04:11:09;0;0;
46681;PMS5003;34101;53.430;-2.224;2022-10-16T04:13:36;4;1;
46681;PMS5003;34101;53.430;-2.224;2022-10-16T04:16:05;1;1;
46681;PMS5003;34101;53.430;-2.224;2022-10-16T04:18:32;2;1;
46681;PMS5003;34101;53.430;-2.224;2022-10-16T04:21:01;1;1;
46681;PMS5003;34101;53.430;-2.224;2022-10-16T04:23:30;2;1;
46681;PMS5003;34101;53.430;-2.224;2022-10-16T04:25:57;2;1;
46681;PMS5003;34101;53.430;-2.224;2022-10-16T04:28:24;2;2;
46681;PMS5003;34101;53.430;-2.224;2022-10-16T04:30:52;3;2;
46681;PMS5003;34101;53.430;-2.224;2022-10-16T04:33:19;2;0;
46681;PMS5003;34101;53.430;-2.224;2022-10-16T04:35:47;1;1;
46681;PMS5003;34101;53.430;-2.224;2022-10-16T04:38:14;2;1;
46681;PMS5003;34101;53.430;-2.224;2022-10-16T04:40:42;1;1;
46681;PMS5003;34101;53.430;-2.224;2022-10-16T04:43:09;1;1;
46681;PMS5003;34101;53.430;-2.224;2022-10-16T04:45:37;1;1;
46681;PMS5003;34101;53.430;-2.224;2022-10-16T04:48:04;1;1;
46681;PMS5003;34101;53.430;-2.224;2022-10-16T04:50:32;2;2;
46681;PMS5003;34101;53.430;-2.224;2022-10-16T04:52:59;1;1;
46681;PMS5003;34101;53.430;-2.224;2022-10-16T04:55:26;1;1;
46681;PMS5003;34101;53.430;-2.224;2022-10-16T04:57:53;3;3;
46681;PMS5003;34101;53.430;-2.224;2022-10-16T05:00:21;1;1;
46681;PMS5003;34101;53.430;-2.224;2022-10-16T05:02:49;1;1;
46681;PMS5003;34101;53.430;-2.224;2022-10-16T05:05:17;1;1;
46681;PMS5003;34101;53.430;-2.224;2022-10-16T05:07:44;2;1;
46681;PMS5003;34101;53.430;-2.224;2022-10-16T05:10:12;3;1;
46681;PMS5003;34101;53.430;-2.224;2022-10-16T05:12:39;1;1;
46681;PMS5003;34101;53.430;-2.224;2022-10-16T05:15:07;1;1;
46681;PMS5003;34101;53.430;-2.224;2022-10-16T05:17:36;2;2;
46681;PMS5003;34101;53.430;-2.224;2022-10-16T05:20:03;1;1;
46681;PMS5003;34101;53.430;-2.224;2022-10-16T05:22:31;1;1;
46681;PMS5003;34101;53.430;-2.224;2022-10-16T05:24:59;1;1;
46681;PMS5003;34101;53.430;-2.224;2022-10-16T05:27:26;1;1;
46681;PMS5003;34101;53.430;-2.224;2022-10-16T05:29:54;4;1;
46681;PMS5003;34101;53.430;-2.224;2022-10-16T05:32:21;2;2;
46681;PMS5003;34101;53.430;-2.224;2022-10-16T05:34:50;1;1;
46681;PMS5003;34101;53.430;-2.224;2022-10-16T05:37:17;1;1;
46681;PMS5003;34101;53.430;-2.224;2022-10-16T05:39:44;1;0;
46681;PMS5003;34101;53.430;-2.224;2022-10-16T05:42:11;0;0;
46681;PMS5003;34101;53.430;-2.224;2022-10-16T05:44:39;0;0;
46681;PMS5003;34101;53.430;-2.224;2022-10-16T05:47:06;0;0;
46681;PMS5003;34101;53.430;-2.224;2022-10-16T05:49:34;0;0;
46681;PMS5003;34101;53.430;-2.224;2022-10-16T05:52:01;2;0;
46681;PMS5003;34101;53.430;-2.224;2022-10-16T05:54:29;1;1;
46681;PMS5003;34101;53.430;-2.224;2022-10-16T05:56:56;2;0;
46681;PMS5003;34101;53.430;-2.224;2022-10-16T05:59:23;1;1;
46681;PMS5003;34101;53.430;-2.224;2022-10-16T06:01:51;0;0;
46681;PMS5003;34101;53.430;-2.224;2022-10-16T06:04:17;2;1;
46681;PMS5003;34101;53.430;-2.224;2022-10-16T06:06:45;1;0;
46681;PMS5003;34101;53.430;-2.224;2022-10-16T06:09:12;1;1;
46681;PMS5003;34101;53.430;-2.224;2022-10-16T06:11:40;0;0;
46681;PMS5003;34101;53.430;-2.224;2022-10-16T06:14:07;1;1;
46681;PMS5003;34101;53.430;-2.224;2022-10-16T06:16:35;1;1;
46681;PMS5003;34101;53.430;-2.224;2022-10-16T06:19:03;2;1;
46681;PMS5003;34101;53.430;-2.224;2022-10-16T06:21:30;4;2;
46681;PMS5003;34101;53.430;-2.224;2022-10-16T06:23:59;1;1;
46681;PMS5003;34101;53.430;-2.224;2022-10-16T06:26:27;4;2;
46681;PMS5003;34101;53.430;-2.224;2022-10-16T06:28:56;0;0;
46681;PMS5003;34101;53.430;-2.224;2022-10-16T06:31:25;1;1;
46681;PMS5003;34101;53.430;-2.224;2022-10-16T06:33:53;1;1;
46681;PMS5003;34101;53.430;-2.224;2022-10-16T06:36:21;1;1;
46681;PMS5003;34101;53.430;-2.224;2022-10-16T06:38:48;1;1;
46681;PMS5003;34101;53.430;-2.224;2022-10-16T06:41:17;2;1;
46681;PMS5003;34101;53.430;-2.224;2022-10-16T06:43:45;2;1;
46681;PMS5003;34101;53.430;-2.224;2022-10-16T06:46:14;2;1;
46681;PMS5003;34101;53.430;-2.224;2022-10-16T06:48:43;1;1;
46681;PMS5003;34101;53.430;-2.224;2022-10-16T06:51:11;2;0;
46681;PMS5003;34101;53.430;-2.224;2022-10-16T06:53:40;4;1;
46681;PMS5003;34101;53.430;-2.224;2022-10-16T06:56:09;1;1;
46681;PMS5003;34101;53.430;-2.224;2022-10-16T06:58:38;0;0;
46681;PMS5003;34101;53.430;-2.224;2022-10-16T07:01:06;1;0;
46681;PMS5003;34101;53.430;-2.224;2022-10-16T07:03:35;0;0;
46681;PMS5003;34101;53.430;-2.224;2022-10-16T07:06:04;0;0;
46681;PMS5003;34101;53.430;-2.224;2022-10-16T07:08:33;2;1;
46681;PMS5003;34101;53.430;-2.224;2022-10-16T07:11:00;2;1;
46681;PMS5003;34101;53.430;-2.224;2022-10-16T07:13:28;1;1;
46681;PMS5003;34101;53.430;-2.224;2022-10-16T07:15:56;0;0;
46681;PMS5003;34101;53.430;-2.224;2022-10-16T07:18:23;0;0;
46681;PMS5003;34101;53.430;-2.224;2022-10-16T07:20:51;2;1;
46681;PMS5003;34101;53.430;-2.224;2022-10-16T07:23:18;1;1;
46681;PMS5003;34101;53.430;-2.224;2022-10-16T07:25:46;1;1;
46681;PMS5003;34101;53.430;-2.224;2022-10-16T07:28:20;5;2;
46681;PMS5003;34101;53.430;-2.224;2022-10-16T07:30:47;3;0;
46681;PMS5003;34101;53.430;-2.224;2022-10-16T07:33:15;0;0;
46681;PMS5003;34101;53.430;-2.224;2022-10-16T07:35:48;1;1;
46681;PMS5003;34101;53.430;-2.224;2022-10-16T07:38:17;2;0;
46681;PMS5003;34101;53.430;-2.224;2022-10-16T07:40:44;2;0;
46681;PMS5003;34101;53.430;-2.224;2022-10-16T07:43:12;1;1;
46681;PMS5003;34101;53.430;-2.224;2022-10-16T07:45:48;0;0;
46681;PMS5003;34101;53.430;-2.224;2022-10-16T07:48:17;1;1;
46681;PMS5003;34101;53.430;-2.224;2022-10-16T07:50:45;0;0;
46681;PMS5003;34101;53.430;-2.224;2022-10-16T07:53:12;1;1;
46681;PMS5003;34101;53.430;-2.224;2022-10-16T07:55:41;1;1;
46681;PMS5003;34101;53.430;-2.224;2022-10-16T07:58:08;0;0;
46681;PMS5003;34101;53.430;-2.224;2022-10-16T08:00:36;1;1;
46681;PMS5003;34101;53.430;-2.224;2022-10-16T08:03:04;0;0;
46681;PMS5003;34101;53.430;-2.224;2022-10-16T08:05:32;0;0;
46681;PMS5003;34101;53.430;-2.224;2022-10-16T08:08:00;1;1;
46681;PMS5003;34101;53.430;-2.224;2022-10-16T08:10:28;3;2;
46681;PMS5003;34101;53.430;-2.224;2022-10-16T08:12:55;1;1;
46681;PMS5003;34101;53.430;-2.224;2022-10-16T08:15:22;1;1;
46681;PMS5003;34101;53.430;-2.224;2022-10-16T08:17:57;0;0;
46681;PMS5003;34101;53.430;-2.224;2022-10-16T08:20:27;0;0;
46681;PMS5003;34101;53.430;-2.224;2022-10-16T08:22:55;1;1;
46681;PMS5003;34101;53.430;-2.224;2022-10-16T08:25:23;2;1;
46681;PMS5003;34101;53.430;-2.224;2022-10-16T08:27:51;1;1;
46681;PMS5003;34101;53.430;-2.224;2022-10-16T08:30:18;0;0;
46681;PMS5003;34101;53.430;-2.224;2022-10-16T08:32:47;0;0;
46681;PMS5003;34101;53.430;-2.224;2022-10-16T08:35:14;0;0;
46681;PMS5003;34101;53.430;-2.224;2022-10-16T08:37:42;1;1;
46681;PMS5003;34101;53.430;-2.224;2022-10-16T08:40:20;1;1;
46681;PMS5003;34101;53.430;-2.224;2022-10-16T08:42:56;1;1;
46681;PMS5003;34101;53.430;-2.224;2022-10-16T08:45:45;0;0;
46681;PMS5003;34101;53.430;-2.224;2022-10-16T08:48:26;0;0;
46681;PMS5003;34101;53.430;-2.224;2022-10-16T08:50:57;0;0;
46681;PMS5003;34101;53.430;-2.224;2022-10-16T08:53:28;1;1;
46681;PMS5003;34101;53.430;-2.224;2022-10-16T08:56:00;1;1;
46681;PMS5003;34101;53.430;-2.224;2022-10-16T08:58:28;0;0;
46681;PMS5003;34101;53.430;-2.224;2022-10-16T09:00:58;2;1;
46681;PMS5003;34101;53.430;-2.224;2022-10-16T09:03:32;0;0;
46681;PMS5003;34101;53.430;-2.224;2022-10-16T09:06:17;0;0;
46681;PMS5003;34101;53.430;-2.224;2022-10-16T09:08:57;4;2;
46681;PMS5003;34101;53.430;-2.224;2022-10-16T09:11:35;0;0;
46681;PMS5003;34101;53.430;-2.224;2022-10-16T09:14:17;1;1;
46681;PMS5003;34101;53.430;-2.224;2022-10-16T09:17:00;0;0;
46681;PMS5003;34101;53.430;-2.224;2022-10-16T09:19:35;1;0;
46681;PMS5003;34101;53.430;-2.224;2022-10-16T09:22:10;0;0;
46681;PMS5003;34101;53.430;-2.224;2022-10-16T09:24:41;4;2;
46681;PMS5003;34101;53.430;-2.224;2022-10-16T09:27:09;1;0;
46681;PMS5003;34101;53.430;-2.224;2022-10-16T09:29:37;0;0;
46681;PMS5003;34101;53.430;-2.224;2022-10-16T09:32:09;0;0;
46681;PMS5003;34101;53.430;-2.224;2022-10-16T09:34:40;0;0;
46681;PMS5003;34101;53.430;-2.224;2022-10-16T09:37:12;3;1;
46681;PMS5003;34101;53.430;-2.224;2022-10-16T09:39:44;1;1;
46681;PMS5003;34101;53.430;-2.224;2022-10-16T09:42:14;1;1;
46681;PMS5003;34101;53.430;-2.224;2022-10-16T09:44:46;1;0;
46681;PMS5003;34101;53.430;-2.224;2022-10-16T09:47:15;0;0;
46681;PMS5003;34101;53.430;-2.224;2022-10-16T09:49:50;1;1;
46681;PMS5003;34101;53.430;-2.224;2022-10-16T09:52:19;1;1;
46681;PMS5003;34101;53.430;-2.224;2022-10-16T09:54:50;0;0;
46681;PMS5003;34101;53.430;-2.224;2022-10-16T09:57:19;3;1;
46681;PMS5003;34101;53.430;-2.224;2022-10-16T09:59:48;0;0;
46681;PMS5003;34101;53.430;-2.224;2022-10-16T10:02:17;0;0;
46681;PMS5003;34101;53.430;-2.224;2022-10-16T10:04:48;1;1;
46681;PMS5003;34101;53.430;-2.224;2022-10-16T10:07:18;1;1;
46681;PMS5003;34101;53.430;-2.224;2022-10-16T10:09:51;0;0;
46681;PMS5003;34101;53.430;-2.224;2022-10-16T10:12:20;2;1;
46681;PMS5003;34101;53.430;-2.224;2022-10-16T10:14:50;1;0;
46681;PMS5003;34101;53.430;-2.224;2022-10-16T10:17:20;1;1;
46681;PMS5003;34101;53.430;-2.224;2022-10-16T10:19:49;0;0;
46681;PMS5003;34101;53.430;-2.224;2022-10-16T10:22:23;0;0;
46681;PMS5003;34101;53.430;-2.224;2022-10-16T10:24:56;0;0;
46681;PMS5003;34101;53.430;-2.224;2022-10-16T10:27:36;0;0;
46681;PMS5003;34101;53.430;-2.224;2022-10-16T10:30:15;0;0;
46681;PMS5003;34101;53.430;-2.224;2022-10-16T10:32:51;1;1;
46681;PMS5003;34101;53.430;-2.224;2022-10-16T10:35:37;0;0;
46681;PMS5003;34101;53.430;-2.224;2022-10-16T10:38:16;3;1;
46681;PMS5003;34101;53.430;-2.224;2022-10-16T10:40:52;1;0;
46681;PMS5003;34101;53.430;-2.224;2022-10-16T10:43:37;0;0;
46681;PMS5003;34101;53.430;-2.224;2022-10-16T10:46:17;1;1;
46681;PMS5003;34101;53.430;-2.224;2022-10-16T10:48:54;0;0;
46681;PMS5003;34101;53.430;-2.224;2022-10-16T10:51:37;0;0;
46681;PMS5003;34101;53.430;-2.224;2022-10-16T10:54:12;0;0;
46681;PMS5003;34101;53.430;-2.224;2022-10-16T10:56:47;0;0;
46681;PMS5003;34101;53.430;-2.224;2022-10-16T10:59:25;1;0;
46681;PMS5003;34101;53.430;-2.224;2022-10-16T11:02:03;0;0;
46681;PMS5003;34101;53.430;-2.224;2022-10-16T11:04:45;1;1;
46681;PMS5003;34101;53.430;-2.224;2022-10-16T11:07:27;1;0;
46681;PMS5003;34101;53.430;-2.224;2022-10-16T11:10:02;0;0;
46681;PMS5003;34101;53.430;-2.224;2022-10-16T11:12:35;1;0;
46681;PMS5003;34101;53.430;-2.224;2022-10-16T11:15:10;0;0;
46681;PMS5003;34101;53.430;-2.224;2022-10-16T11:17:48;0;0;
46681;PMS5003;34101;53.430;-2.224;2022-10-16T11:20:19;1;1;
46681;PMS5003;34101;53.430;-2.224;2022-10-16T11:22:51;1;1;
46681;PMS5003;34101;53.430;-2.224;2022-10-16T11:25:23;0;0;
46681;PMS5003;34101;53.430;-2.224;2022-10-16T11:27:55;0;0;
46681;PMS5003;34101;53.430;-2.224;2022-10-16T11:30:29;2;0;
46681;PMS5003;34101;53.430;-2.224;2022-10-16T11:33:08;1;0;
46681;PMS5003;34101;53.430;-2.224;2022-10-16T11:35:51;1;1;
46681;PMS5003;34101;53.430;-2.224;2022-10-16T11:38:28;1;1;
46681;PMS5003;34101;53.430;-2.224;2022-10-16T11:41:01;2;0;
46681;PMS5003;34101;53.430;-2.224;2022-10-16T11:43:35;1;1;
46681;PMS5003;34101;53.430;-2.224;2022-10-16T11:46:08;1;0;
46681;PMS5003;34101;53.430;-2.224;2022-10-16T11:48:41;1;1;
46681;PMS5003;34101;53.430;-2.224;2022-10-16T11:51:17;0;0;
46681;PMS5003;34101;53.430;-2.224;2022-10-16T11:53:58;0;0;
46681;PMS5003;34101;53.430;-2.224;2022-10-16T11:56:31;0;0;
46681;PMS5003;34101;53.430;-2.224;2022-10-16T11:59:04;0;0;
46681;PMS5003;34101;53.430;-2.224;2022-10-16T12:01:40;0;0;
46681;PMS5003;34101;53.430;-2.224;2022-10-16T12:04:14;0;0;
46681;PMS5003;34101;53.430;-2.224;2022-10-16T12:06:48;2;1;
46681;PMS5003;34101;53.430;-2.224;2022-10-16T12:09:25;2;0;
46681;PMS5003;34101;53.430;-2.224;2022-10-16T12:11:57;0;0;
46681;PMS5003;34101;53.430;-2.224;2022-10-16T12:14:40;1;0;
46681;PMS5003;34101;53.430;-2.224;2022-10-16T12:17:27;0;0;
46681;PMS5003;34101;53.430;-2.224;2022-10-16T12:20:19;1;1;
46681;PMS5003;34101;53.430;-2.224;2022-10-16T12:22:54;0;0;
46681;PMS5003;34101;53.430;-2.224;2022-10-16T12:25:26;0;0;
46681;PMS5003;34101;53.430;-2.224;2022-10-16T12:27:56;0;0;
46681;PMS5003;34101;53.430;-2.224;2022-10-16T12:30:26;0;0;
46681;PMS5003;34101;53.430;-2.224;2022-10-16T12:32:55;0;0;
46681;PMS5003;34101;53.430;-2.224;2022-10-16T12:35:25;1;1;
46681;PMS5003;34101;53.430;-2.224;2022-10-16T12:38:04;0;0;
46681;PMS5003;34101;53.430;-2.224;2022-10-16T12:40:40;0;0;
46681;PMS5003;34101;53.430;-2.224;2022-10-16T12:43:11;0;0;
46681;PMS5003;34101;53.430;-2.224;2022-10-16T12:45:59;0;0;
46681;PMS5003;34101;53.430;-2.224;2022-10-16T12:48:47;2;2;
46681;PMS5003;34101;53.430;-2.224;2022-10-16T12:51:22;2;2;
46681;PMS5003;34101;53.430;-2.224;2022-10-16T12:53:59;0;0;
46681;PMS5003;34101;53.430;-2.224;2022-10-16T12:56:31;1;0;
46681;PMS5003;34101;53.430;-2.224;2022-10-16T12:59:08;2;1;
46681;PMS5003;34101;53.430;-2.224;2022-10-16T13:01:47;2;2;
46681;PMS5003;34101;53.430;-2.224;2022-10-16T13:04:28;2;0;
46681;PMS5003;34101;53.430;-2.224;2022-10-16T13:07:15;0;0;
46681;PMS5003;34101;53.430;-2.224;2022-10-16T13:09:55;0;0;
46681;PMS5003;34101;53.430;-2.224;2022-10-16T13:12:52;4;1;
46681;PMS5003;34101;53.430;-2.224;2022-10-16T13:15:38;3;1;
46681;PMS5003;34101;53.430;-2.224;2022-10-16T13:18:19;0;0;
46681;PMS5003;34101;53.430;-2.224;2022-10-16T13:20:58;0;0;
46681;PMS5003;34101;53.430;-2.224;2022-10-16T13:23:34;1;1;
46681;PMS5003;34101;53.430;-2.224;2022-10-16T13:26:10;1;1;
46681;PMS5003;34101;53.430;-2.224;2022-10-16T13:28:46;1;1;
46681;PMS5003;34101;53.430;-2.224;2022-10-16T13:31:15;0;0;
46681;PMS5003;34101;53.430;-2.224;2022-10-16T13:33:46;1;1;
46681;PMS5003;34101;53.430;-2.224;2022-10-16T13:36:18;0;0;
46681;PMS5003;34101;53.430;-2.224;2022-10-16T13:38:47;1;1;
46681;PMS5003;34101;53.430;-2.224;2022-10-16T13:41:16;1;1;
46681;PMS5003;34101;53.430;-2.224;2022-10-16T13:43:45;0;0;
46681;PMS5003;34101;53.430;-2.224;2022-10-16T13:46:15;2;0;
46681;PMS5003;34101;53.430;-2.224;2022-10-16T13:48:44;0;0;
46681;PMS5003;34101;53.430;-2.224;2022-10-16T13:51:23;1;1;
46681;PMS5003;34101;53.430;-2.224;2022-10-16T13:53:50;1;1;
46681;PMS5003;34101;53.430;-2.224;2022-10-16T13:56:18;5;2;
46681;PMS5003;34101;53.430;-2.224;2022-10-16T13:58:57;1;1;
46681;PMS5003;34101;53.430;-2.224;2022-10-16T14:01:31;0;0;
46681;PMS5003;34101;53.430;-2.224;2022-10-16T14:04:01;1;1;
46681;PMS5003;34101;53.430;-2.224;2022-10-16T14:06:30;4;1;
46681;PMS5003;34101;53.430;-2.224;2022-10-16T14:08:59;1;1;
46681;PMS5003;34101;53.430;-2.224;2022-10-16T14:11:32;3;0;
46681;PMS5003;34101;53.430;-2.224;2022-10-16T14:14:04;0;0;
46681;PMS5003;34101;53.430;-2.224;2022-10-16T14:16:31;0;0;
46681;PMS5003;34101;53.430;-2.224;2022-10-16T14:18:59;0;0;
46681;PMS5003;34101;53.430;-2.224;2022-10-16T14:21:29;2;0;
46681;PMS5003;34101;53.430;-2.224;2022-10-16T14:23:56;1;1;
46681;PMS5003;34101;53.430;-2.224;2022-10-16T14:26:25;1;1;
46681;PMS5003;34101;53.430;-2.224;2022-10-16T14:29:02;1;1;
46681;PMS5003;34101;53.430;-2.224;2022-10-16T14:31:37;2;1;
46681;PMS5003;34101;53.430;-2.224;2022-10-16T14:34:04;0;0;
46681;PMS5003;34101;53.430;-2.224;2022-10-16T14:36:31;1;1;
46681;PMS5003;34101;53.430;-2.224;2022-10-16T14:39:01;3;1;
46681;PMS5003;34101;53.430;-2.224;2022-10-16T14:41:31;2;2;
46681;PMS5003;34101;53.430;-2.224;2022-10-16T14:44:10;1;0;
46681;PMS5003;34101;53.430;-2.224;2022-10-16T14:46:39;3;1;
46681;PMS5003;34101;53.430;-2.224;2022-10-16T14:49:13;1;1;
46681;PMS5003;34101;53.430;-2.224;2022-10-16T14:51:43;1;1;
46681;PMS5003;34101;53.430;-2.224;2022-10-16T14:54:11;1;1;
46681;PMS5003;34101;53.430;-2.224;2022-10-16T14:56:43;2;1;
46681;PMS5003;34101;53.430;-2.224;2022-10-16T14:59:15;0;0;
46681;PMS5003;34101;53.430;-2.224;2022-10-16T15:01:45;1;0;
46681;PMS5003;34101;53.430;-2.224;2022-10-16T15:04:13;1;1;
46681;PMS5003;34101;53.430;-2.224;2022-10-16T15:06:41;1;1;
46681;PMS5003;34101;53.430;-2.224;2022-10-16T15:09:10;1;1;
46681;PMS5003;34101;53.430;-2.224;2022-10-16T15:11:37;1;1;
46681;PMS5003;34101;53.430;-2.224;2022-10-16T15:14:08;4;2;
46681;PMS5003;34101;53.430;-2.224;2022-10-16T15:16:37;3;1;
46681;PMS5003;34101;53.430;-2.224;2022-10-16T15:19:05;3;3;
46681;PMS5003;34101;53.430;-2.224;2022-10-16T15:21:32;2;2;
46681;PMS5003;34101;53.430;-2.224;2022-10-16T15:24:00;0;0;
46681;PMS5003;34101;53.430;-2.224;2022-10-16T15:26:28;0;0;
46681;PMS5003;34101;53.430;-2.224;2022-10-16T15:28:56;2;1;
46681;PMS5003;34101;53.430;-2.224;2022-10-16T15:31:23;0;0;
46681;PMS5003;34101;53.430;-2.224;2022-10-16T15:33:50;1;1;
46681;PMS5003;34101;53.430;-2.224;2022-10-16T15:36:27;1;1;
46681;PMS5003;34101;53.430;-2.224;2022-10-16T15:38:57;1;1;
46681;PMS5003;34101;53.430;-2.224;2022-10-16T15:41:25;1;1;
46681;PMS5003;34101;53.430;-2.224;2022-10-16T15:43:53;1;1;
46681;PMS5003;34101;53.430;-2.224;2022-10-16T15:46:25;2;2;
46681;PMS5003;34101;53.430;-2.224;2022-10-16T15:48:55;3;2;
46681;PMS5003;34101;53.430;-2.224;2022-10-16T15:51:24;3;3;
46681;PMS5003;34101;53.430;-2.224;2022-10-16T15:53:53;1;1;
46681;PMS5003;34101;53.430;-2.224;2022-10-16T15:56:21;2;2;
46681;PMS5003;34101;53.430;-2.224;2022-10-16T15:58:49;1;1;
46681;PMS5003;34101;53.430;-2.224;2022-10-16T16:01:16;0;0;
46681;PMS5003;34101;53.430;-2.224;2022-10-16T16:03:43;4;4;
46681;PMS5003;34101;53.430;-2.224;2022-10-16T16:06:11;3;3;
46681;PMS5003;34101;53.430;-2.224;2022-10-16T16:08:40;7;5;
46681;PMS5003;34101;53.430;-2.224;2022-10-16T16:11:08;13;11;
46681;PMS5003;34101;53.430;-2.224;2022-10-16T16:13:38;12;9;
46681;PMS5003;34101;53.430;-2.224;2022-10-16T16:16:06;6;6;
46681;PMS5003;34101;53.430;-2.224;2022-10-16T16:18:34;6;6;
46681;PMS5003;34101;53.430;-2.224;2022-10-16T16:21:03;9;9;
46681;PMS5003;34101;53.430;-2.224;2022-10-16T16:23:31;6;5;
46681;PMS5003;34101;53.430;-2.224;2022-10-16T16:26:06;3;3;
46681;PMS5003;34101;53.430;-2.224;2022-10-16T16:28:37;6;6;
46681;PMS5003;34101;53.430;-2.224;2022-10-16T16:31:06;8;6;
46681;PMS5003;34101;53.430;-2.224;2022-10-16T16:33:33;8;7;
46681;PMS5003;34101;53.430;-2.224;2022-10-16T16:36:02;6;5;
46681;PMS5003;34101;53.430;-2.224;2022-10-16T16:38:33;5;5;
46681;PMS5003;34101;53.430;-2.224;2022-10-16T16:41:10;5;5;
46681;PMS5003;34101;53.430;-2.224;2022-10-16T16:43:38;4;4;
46681;PMS5003;34101;53.430;-2.224;2022-10-16T16:46:05;5;5;
46681;PMS5003;34101;53.430;-2.224;2022-10-16T16:48:33;4;4;
46681;PMS5003;34101;53.430;-2.224;2022-10-16T16:51:02;1;1;
46681;PMS5003;34101;53.430;-2.224;2022-10-16T16:53:30;3;3;
46681;PMS5003;34101;53.430;-2.224;2022-10-16T16:56:00;4;4;
46681;PMS5003;34101;53.430;-2.224;2022-10-16T16:58:29;3;3;